createdAt,value
2022-09-06T00:00:02.055Z,16.77
2022-09-06T00:02:54.999Z,16.78
2022-09-06T00:05:23.150Z,16.76
2022-09-06T00:07:50.870Z,16.72
2022-09-06T00:10:19.168Z,16.69
2022-09-06T00:12:47.903Z,16.63
2022-09-06T00:15:15.719Z,16.61
2022-09-06T00:17:45.239Z,16.57
2022-09-06T00:20:13.038Z,16.51
2022-09-06T00:22:41.264Z,16.48
2022-09-06T00:25:09.224Z,16.43
2022-09-06T00:27:37.100Z,16.44
2022-09-06T00:30:05.156Z,16.41
2022-09-06T00:32:33.036Z,16.40
2022-09-06T00:35:00.938Z,16.40
2022-09-06T00:37:28.771Z,16.42
2022-09-06T00:39:56.562Z,16.41
2022-09-06T00:42:24.605Z,16.43
2022-09-06T00:44:52.414Z,16.40
2022-09-06T00:47:20.261Z,16.39
2022-09-06T00:49:52.679Z,16.40
2022-09-06T00:52:21.415Z,16.40
2022-09-06T00:54:50.424Z,16.39
2022-09-06T00:57:18.561Z,16.38
2022-09-06T00:59:48.205Z,16.38
2022-09-06T01:02:16.062Z,16.35
2022-09-06T01:04:45.330Z,16.31
2022-09-06T01:07:19.045Z,16.25
2022-09-06T01:10:04.389Z,16.22
2022-09-06T01:12:45.383Z,16.19
2022-09-06T01:15:35.189Z,16.20
2022-09-06T01:18:15.422Z,16.15
2022-09-06T01:20:57.829Z,16.11
2022-09-06T01:23:25.627Z,16.10
2022-09-06T01:26:02.779Z,16.08
2022-09-06T01:28:33.615Z,16.07
2022-09-06T01:31:19.836Z,16.03
2022-09-06T01:33:51.844Z,16.01
2022-09-06T01:36:23.058Z,16.02
2022-09-06T01:38:50.790Z,16.02
2022-09-06T01:41:18.501Z,16.04
2022-09-06T01:43:49.686Z,16.05
2022-09-06T01:46:23.811Z,16.06
2022-09-06T01:48:54.400Z,16.09
2022-09-06T01:51:25.183Z,16.07
2022-09-06T01:53:53.136Z,16.07
2022-09-06T01:56:30.218Z,16.07
2022-09-06T01:59:01.082Z,16.09
2022-09-06T02:01:32.694Z,16.12
2022-09-06T02:04:12.677Z,16.14
2022-09-06T02:06:42.795Z,16.14
2022-09-06T02:09:13.487Z,16.14
2022-09-06T02:11:44.651Z,16.14
2022-09-06T02:14:15.957Z,16.13
2022-09-06T02:16:45.995Z,16.13
2022-09-06T02:19:36.033Z,16.13
2022-09-06T02:22:07.860Z,16.13
2022-09-06T02:24:37.416Z,16.13
2022-09-06T02:27:05.329Z,16.13
2022-09-06T02:29:34.038Z,16.16
2022-09-06T02:32:07.404Z,16.18
2022-09-06T02:34:37.540Z,16.20
2022-09-06T02:37:06.110Z,16.23
2022-09-06T02:39:34.117Z,16.27
2022-09-06T02:42:02.618Z,16.33
2022-09-06T02:44:30.434Z,16.34
2022-09-06T02:46:58.731Z,16.36
2022-09-06T02:49:26.482Z,16.36
2022-09-06T02:51:54.154Z,16.35
2022-09-06T02:54:22.002Z,16.36
2022-09-06T02:56:52.206Z,16.34
2022-09-06T02:59:20.905Z,16.31
2022-09-06T03:01:48.878Z,16.31
2022-09-06T03:04:16.739Z,16.30
2022-09-06T03:06:44.483Z,16.28
2022-09-06T03:09:12.266Z,16.22
2022-09-06T03:11:40.089Z,16.15
2022-09-06T03:14:07.954Z,16.06
2022-09-06T03:16:37.178Z,15.97
2022-09-06T03:19:05.168Z,15.93
2022-09-06T03:21:32.982Z,15.84
2022-09-06T03:24:18.100Z,15.79
2022-09-06T03:26:45.865Z,15.77
2022-09-06T03:29:13.647Z,15.76
2022-09-06T03:31:41.381Z,15.76
2022-09-06T03:34:11.057Z,15.79
2022-09-06T03:36:39.276Z,15.79
2022-09-06T03:39:07.266Z,15.78
2022-09-06T03:41:35.075Z,15.74
2022-09-06T03:44:03.141Z,15.71
2022-09-06T03:46:31.250Z,15.68
2022-09-06T03:48:59.729Z,15.65
2022-09-06T03:51:27.505Z,15.60
2022-09-06T03:53:55.826Z,15.55
2022-09-06T03:56:23.565Z,15.49
2022-09-06T03:58:51.513Z,15.45
2022-09-06T04:01:19.403Z,15.40
2022-09-06T04:03:47.359Z,15.42
2022-09-06T04:06:15.087Z,15.45
2022-09-06T04:08:42.995Z,15.44
2022-09-06T04:11:11.029Z,15.42
2022-09-06T04:13:39.008Z,15.43
2022-09-06T04:16:06.873Z,15.43
2022-09-06T04:18:35.047Z,15.44
2022-09-06T04:21:03.137Z,15.46
2022-09-06T04:23:31.052Z,15.41
2022-09-06T04:25:59.564Z,15.37
2022-09-06T04:28:28.012Z,15.37
2022-09-06T04:31:04.377Z,15.35
2022-09-06T04:33:34.539Z,15.33
2022-09-06T04:36:03.715Z,15.34
2022-09-06T04:38:35.112Z,15.35
2022-09-06T04:41:03.456Z,15.34
2022-09-06T04:43:31.320Z,15.33
2022-09-06T04:46:03.414Z,15.31
2022-09-06T04:48:31.319Z,15.35
2022-09-06T04:50:59.142Z,15.34
2022-09-06T04:53:27.290Z,15.36
2022-09-06T04:55:56.851Z,15.40
2022-09-06T04:58:25.224Z,15.45
2022-09-06T05:00:53.183Z,15.45
2022-09-06T05:03:21.170Z,15.49
2022-09-06T05:05:49.186Z,15.51
2022-09-06T05:08:16.983Z,15.57
2022-09-06T05:10:44.740Z,15.60
2022-09-06T05:13:12.477Z,15.62
2022-09-06T05:15:40.195Z,15.64
2022-09-06T05:18:07.899Z,15.65
2022-09-06T05:20:37.203Z,15.65
2022-09-06T05:23:05.171Z,15.66
2022-09-06T05:25:33.006Z,15.68
2022-09-06T05:28:00.799Z,15.72
2022-09-06T05:30:28.462Z,15.74
2022-09-06T05:32:56.525Z,15.79
2022-09-06T05:35:24.399Z,15.83
2022-09-06T05:37:52.114Z,15.88
2022-09-06T05:40:20.120Z,15.93
2022-09-06T05:42:47.811Z,15.99
2022-09-06T05:45:15.829Z,16.04
2022-09-06T05:47:46.825Z,16.07
2022-09-06T05:50:16.307Z,16.10
2022-09-06T05:52:44.349Z,16.16
2022-09-06T05:55:12.208Z,16.23
2022-09-06T05:57:40.053Z,16.26
2022-09-06T06:00:08.206Z,16.28
2022-09-06T06:02:40.398Z,16.31
2022-09-06T06:05:08.722Z,16.32
2022-09-06T06:07:36.430Z,16.36
2022-09-06T06:10:04.537Z,16.41
2022-09-06T06:12:32.295Z,16.45
2022-09-06T06:15:00.806Z,16.50
2022-09-06T06:17:28.664Z,16.55
2022-09-06T06:19:56.656Z,16.59
2022-09-06T06:22:24.868Z,16.64
2022-09-06T06:24:52.850Z,16.69
2022-09-06T06:27:20.562Z,16.74
2022-09-06T06:29:48.272Z,16.77
2022-09-06T06:32:16.589Z,16.80
2022-09-06T06:34:44.248Z,16.84
2022-09-06T06:37:12.147Z,16.88
2022-09-06T06:39:40.111Z,16.95
2022-09-06T06:42:09.377Z,17.04
2022-09-06T06:44:44.971Z,17.11
2022-09-06T06:47:12.799Z,17.21
2022-09-06T06:49:40.579Z,17.31
2022-09-06T06:52:08.381Z,17.38
2022-09-06T06:54:37.525Z,17.45
2022-09-06T06:57:05.891Z,17.53
2022-09-06T06:59:33.867Z,17.60
2022-09-06T07:02:01.824Z,17.66
2022-09-06T07:04:29.820Z,17.72
2022-09-06T07:12:33.915Z,17.94
2022-09-06T07:15:01.915Z,18.00
2022-09-06T07:17:29.681Z,18.03
2022-09-06T07:20:13.090Z,18.08
2022-09-06T07:22:41.803Z,18.13
2022-09-06T07:25:12.750Z,18.18
2022-09-06T07:27:49.306Z,18.25
2022-09-06T07:30:20.077Z,18.32
2022-09-06T07:32:48.257Z,18.39
2022-09-06T07:35:16.150Z,18.46
2022-09-06T07:37:43.980Z,18.55
2022-09-06T07:40:11.908Z,18.64
2022-09-06T07:42:40.045Z,18.74
2022-09-06T07:45:08.601Z,18.83
2022-09-06T07:53:15.183Z,19.06
2022-09-06T07:55:45.431Z,19.09
2022-09-06T07:58:13.169Z,19.13
2022-09-06T08:00:41.572Z,19.17
2022-09-06T08:03:10.527Z,19.18
2022-09-06T08:11:14.578Z,19.17
2022-09-06T08:13:42.601Z,19.17
2022-09-06T08:16:11.401Z,19.21
2022-09-06T08:18:39.303Z,19.27
2022-09-06T08:21:12.884Z,19.33
2022-09-06T08:23:44.837Z,19.36
2022-09-06T08:26:13.956Z,19.41
2022-09-06T08:28:41.796Z,19.48
2022-09-06T08:31:11.145Z,19.57
2022-09-06T08:33:39.547Z,19.65
2022-09-06T08:36:08.391Z,19.74
2022-09-06T08:38:36.817Z,19.84
2022-09-06T08:41:15.641Z,19.94
2022-09-06T08:46:59.399Z,20.11
2022-09-06T08:49:30.010Z,20.15
2022-09-06T08:52:01.844Z,20.21
2022-09-06T08:54:37.386Z,20.27
2022-09-06T08:57:08.074Z,20.34
2022-09-06T08:59:37.870Z,20.45
2022-09-06T09:02:05.729Z,20.58
2022-09-06T09:04:35.699Z,20.71
2022-09-06T09:07:22.017Z,20.85
2022-09-06T09:09:50.687Z,20.99
2022-09-06T09:12:22.383Z,21.10
2022-09-06T09:14:56.055Z,21.19
2022-09-06T09:17:29.411Z,21.27
2022-09-06T09:19:57.303Z,21.36
2022-09-06T09:22:25.842Z,21.43
2022-09-06T09:24:54.802Z,21.47
2022-09-06T09:27:25.114Z,21.49
2022-09-06T09:32:47.659Z,21.58
2022-09-06T09:35:21.715Z,21.60
2022-09-06T09:38:04.970Z,21.61
2022-09-06T09:40:54.451Z,21.62
2022-09-06T09:43:29.847Z,21.62
2022-09-06T09:46:10.527Z,21.65
2022-09-06T09:48:39.385Z,21.70
2022-09-06T09:51:25.566Z,21.75
2022-09-06T09:53:59.700Z,21.80
2022-09-06T09:56:29.894Z,21.85
2022-09-06T09:58:58.717Z,21.87
2022-09-06T10:01:28.449Z,21.92
2022-09-06T10:07:13.813Z,22.02
2022-09-06T10:09:58.496Z,22.02
2022-09-06T10:12:30.337Z,22.02
2022-09-06T10:15:01.246Z,22.04
2022-09-06T10:17:36.032Z,22.04
2022-09-06T10:20:05.350Z,22.06
2022-09-06T10:22:44.034Z,22.08
2022-09-06T10:25:11.810Z,22.09
2022-09-06T10:28:10.916Z,22.14
2022-09-06T10:31:02.489Z,22.26
2022-09-06T10:33:39.684Z,22.30
2022-09-06T10:36:07.792Z,22.33
2022-09-06T10:39:01.566Z,22.37
2022-09-06T10:41:34.635Z,22.42
2022-09-06T10:44:08.542Z,22.50
2022-09-06T10:46:37.303Z,22.51
2022-09-06T10:49:10.438Z,22.54
2022-09-06T10:51:49.647Z,22.55
2022-09-06T10:54:21.963Z,22.57
2022-09-06T10:56:59.087Z,22.63
2022-09-06T11:02:13.900Z,22.71
2022-09-06T11:07:33.791Z,22.79
2022-09-06T11:10:01.686Z,22.84
2022-09-06T11:12:56.143Z,22.87
2022-09-06T11:15:26.052Z,22.91
2022-09-06T11:17:53.733Z,22.94
2022-09-06T11:20:36.037Z,22.97
2022-09-06T11:23:11.210Z,23.04
2022-09-06T11:25:44.860Z,23.09
2022-09-06T11:28:29.812Z,23.18
2022-09-06T11:30:58.307Z,23.28
2022-09-06T11:33:28.598Z,23.37
2022-09-06T11:36:15.113Z,23.45
2022-09-06T11:38:43.227Z,23.50
2022-09-06T11:41:15.965Z,23.49
2022-09-06T11:43:51.117Z,23.53
2022-09-06T11:46:33.928Z,23.58
2022-09-06T11:49:09.424Z,23.61
2022-09-06T11:51:39.070Z,23.64
2022-09-06T11:54:22.304Z,23.68
2022-09-06T11:56:58.441Z,23.73
2022-09-06T11:59:35.992Z,23.78
2022-09-06T12:02:22.576Z,23.81
2022-09-06T12:05:00.709Z,23.81
2022-09-06T12:07:29.496Z,23.77
2022-09-06T12:09:57.561Z,23.81
2022-09-06T12:12:44.436Z,23.87
2022-09-06T12:15:30.748Z,23.95
2022-09-06T12:17:59.655Z,24.05
2022-09-06T12:20:45.960Z,24.07
2022-09-06T12:23:40.101Z,24.12
2022-09-06T12:26:11.828Z,24.30
2022-09-06T12:28:47.263Z,24.39
2022-09-06T12:31:33.824Z,24.39
2022-09-06T12:34:06.535Z,24.35
2022-09-06T12:36:34.392Z,24.33
2022-09-06T12:39:04.371Z,24.29
2022-09-06T12:41:38.370Z,24.19
2022-09-06T12:44:10.053Z,24.12
2022-09-06T12:46:40.086Z,24.10
2022-09-06T12:49:09.570Z,24.09
2022-09-06T12:51:38.604Z,24.08
2022-09-06T12:54:32.514Z,24.06
2022-09-06T12:57:19.307Z,24.09
2022-09-06T12:59:51.665Z,24.16
2022-09-06T13:02:29.916Z,24.19
2022-09-06T13:05:05.529Z,24.17
2022-09-06T13:07:35.684Z,24.09
2022-09-06T13:10:04.581Z,24.05
2022-09-06T13:12:37.401Z,24.03
2022-09-06T13:15:11.653Z,24.03
2022-09-06T13:17:40.345Z,24.01
2022-09-06T13:20:28.619Z,23.97
2022-09-06T13:23:08.246Z,23.96
2022-09-06T13:25:47.100Z,23.96
2022-09-06T13:28:32.376Z,23.93
2022-09-06T13:31:19.125Z,23.91
2022-09-06T13:34:07.740Z,23.92
2022-09-06T13:36:35.837Z,23.96
2022-09-06T13:39:04.594Z,23.99
2022-09-06T13:41:35.808Z,24.01
2022-09-06T13:44:22.071Z,24.05
2022-09-06T13:46:55.901Z,24.04
2022-09-06T13:49:24.246Z,24.01
2022-09-06T13:51:58.262Z,23.99
2022-09-06T13:54:27.087Z,23.95
2022-09-06T13:56:55.983Z,23.90
2022-09-06T13:59:24.790Z,23.85
2022-09-06T14:02:03.731Z,23.84
2022-09-06T14:04:32.485Z,23.81
2022-09-06T14:07:00.325Z,23.81
2022-09-06T14:09:28.477Z,23.79
2022-09-06T14:11:56.651Z,23.80
2022-09-06T14:14:24.878Z,23.80
2022-09-06T14:16:54.098Z,23.78
2022-09-06T14:19:22.181Z,23.77
2022-09-06T14:21:50.413Z,23.78
2022-09-06T14:24:18.277Z,23.80
2022-09-06T14:26:45.987Z,23.83
2022-09-06T14:29:13.762Z,23.82
2022-09-06T14:31:41.587Z,23.80
2022-09-06T14:34:09.639Z,23.78
2022-09-06T14:36:37.733Z,23.76
2022-09-06T14:39:05.820Z,23.76
2022-09-06T14:41:34.065Z,23.77
2022-09-06T14:44:02.127Z,23.81
2022-09-06T14:46:30.403Z,23.85
2022-09-06T14:49:02.923Z,23.88
2022-09-06T14:51:30.796Z,23.84
2022-09-06T14:54:01.698Z,23.78
2022-09-06T14:56:30.501Z,23.76
2022-09-06T14:59:00.244Z,23.70
2022-09-06T15:01:37.098Z,23.67
2022-09-06T15:04:07.958Z,23.63
2022-09-06T15:06:37.273Z,23.62
2022-09-06T15:09:05.979Z,23.62
2022-09-06T15:11:35.795Z,23.60
2022-09-06T15:14:05.155Z,23.57
2022-09-06T15:16:33.372Z,23.54
2022-09-06T15:19:02.964Z,23.50
2022-09-06T15:21:31.656Z,23.46
2022-09-06T15:24:00.500Z,23.42
2022-09-06T15:26:28.913Z,23.37
2022-09-06T15:28:57.044Z,23.32
2022-09-06T15:31:25.322Z,23.27
2022-09-06T15:33:54.045Z,23.24
2022-09-06T15:36:22.244Z,23.20
2022-09-06T15:38:50.928Z,23.17
2022-09-06T15:41:20.936Z,23.12
2022-09-06T15:43:50.668Z,23.08
2022-09-06T15:46:23.359Z,23.06
2022-09-06T15:48:53.865Z,23.05
2022-09-06T15:51:21.624Z,23.05
2022-09-06T15:53:49.385Z,23.05
2022-09-06T15:56:17.753Z,23.04
2022-09-06T15:58:49.104Z,23.03
2022-09-06T16:01:18.577Z,23.04
2022-09-06T16:03:48.766Z,23.04
2022-09-06T16:06:27.244Z,23.04
2022-09-06T16:09:09.812Z,23.02
2022-09-06T16:11:37.923Z,23.00
2022-09-06T16:14:07.603Z,22.97
2022-09-06T16:16:36.138Z,22.93
2022-09-06T16:19:04.507Z,22.87
2022-09-06T16:21:33.562Z,22.81
2022-09-06T16:24:02.818Z,22.75
2022-09-06T16:26:33.119Z,22.68
2022-09-06T16:29:02.000Z,22.61
2022-09-06T16:31:30.503Z,22.55
2022-09-06T16:33:58.347Z,22.50
2022-09-06T16:36:27.137Z,22.44
2022-09-06T16:38:58.587Z,22.37
2022-09-06T16:41:26.576Z,22.29
2022-09-06T16:43:54.793Z,22.22
2022-09-06T16:46:23.724Z,22.14
2022-09-06T16:48:52.825Z,22.05
2022-09-06T16:51:22.289Z,21.97
2022-09-06T16:53:50.629Z,21.90
2022-09-06T16:56:20.306Z,21.82
2022-09-06T16:58:52.241Z,21.76
2022-09-06T17:01:20.908Z,21.70
2022-09-06T17:03:50.361Z,21.64
2022-09-06T17:06:19.153Z,21.58
2022-09-06T17:08:47.726Z,21.52
2022-09-06T17:11:18.599Z,21.46
2022-09-06T17:13:47.579Z,21.40
2022-09-06T17:16:34.267Z,21.34
2022-09-06T17:19:03.217Z,21.28
2022-09-06T17:21:31.633Z,21.23
2022-09-06T17:24:04.416Z,21.17
2022-09-06T17:26:33.912Z,21.11
2022-09-06T17:29:02.046Z,21.06
2022-09-06T17:31:30.363Z,21.01
2022-09-06T17:33:59.817Z,20.95
2022-09-06T17:36:30.558Z,20.90
2022-09-06T17:39:11.156Z,20.84
2022-09-06T17:41:40.316Z,20.78
2022-09-06T17:44:11.027Z,20.72
2022-09-06T17:46:51.840Z,20.66
2022-09-06T17:49:27.664Z,20.60
2022-09-06T17:51:55.490Z,20.54
2022-09-06T17:54:23.588Z,20.47
2022-09-06T17:56:51.363Z,20.40
2022-09-06T17:59:19.163Z,20.34
2022-09-06T18:01:47.131Z,20.27
2022-09-06T18:04:15.266Z,20.22
2022-09-06T18:06:43.811Z,20.17
2022-09-06T18:09:14.897Z,20.14
2022-09-06T18:11:45.821Z,20.10
2022-09-06T18:14:16.259Z,20.06
2022-09-06T18:16:47.476Z,20.03
2022-09-06T18:19:16.124Z,19.99
2022-09-06T18:21:44.244Z,19.95
2022-09-06T18:24:14.467Z,19.92
2022-09-06T18:26:44.285Z,19.87
2022-09-06T18:29:14.868Z,19.81
2022-09-06T18:31:43.573Z,19.75
2022-09-06T18:34:12.684Z,19.69
2022-09-06T18:36:40.970Z,19.64
2022-09-06T18:39:08.806Z,19.59
2022-09-06T18:41:55.239Z,19.55
2022-09-06T18:44:23.819Z,19.52
2022-09-06T18:46:55.803Z,19.45
2022-09-06T18:49:24.113Z,19.37
2022-09-06T18:51:52.227Z,19.34
2022-09-06T18:54:20.436Z,19.31
2022-09-06T18:56:50.032Z,19.28
2022-09-06T18:59:17.875Z,19.26
2022-09-06T19:01:45.822Z,19.22
2022-09-06T19:04:14.039Z,19.21
2022-09-06T19:06:42.622Z,19.20
2022-09-06T19:09:12.144Z,19.19
2022-09-06T19:11:42.883Z,19.22
2022-09-06T19:14:11.326Z,19.26
2022-09-06T19:16:39.314Z,19.29
2022-09-06T19:19:08.456Z,19.30
2022-09-06T19:21:40.955Z,19.33
2022-09-06T19:24:11.274Z,19.35
2022-09-06T19:26:43.100Z,19.38
2022-09-06T19:29:15.589Z,19.40
2022-09-06T19:31:49.658Z,19.39
2022-09-06T19:34:17.603Z,19.39
2022-09-06T19:36:45.737Z,19.40
2022-09-06T19:39:14.980Z,19.39
2022-09-06T19:41:45.290Z,19.38
2022-09-06T19:44:14.087Z,19.37
2022-09-06T19:46:46.208Z,19.36
2022-09-06T19:49:19.342Z,19.33
2022-09-06T19:51:49.176Z,19.32
2022-09-06T19:54:17.633Z,19.29
2022-09-06T19:56:47.206Z,19.27
2022-09-06T19:59:18.985Z,19.26
2022-09-06T20:01:47.792Z,19.21
2022-09-06T20:04:17.735Z,19.20
2022-09-06T20:06:47.500Z,19.17
2022-09-06T20:09:18.490Z,19.13
2022-09-06T20:11:46.562Z,19.09
2022-09-06T20:14:14.653Z,19.06
2022-09-06T20:16:43.129Z,19.03
2022-09-06T20:19:14.253Z,19.01
2022-09-06T20:21:43.680Z,18.95
2022-09-06T20:24:11.590Z,18.91
2022-09-06T20:26:40.501Z,18.90
2022-09-06T20:29:08.637Z,18.90
2022-09-06T20:31:37.461Z,18.92
2022-09-06T20:34:06.428Z,18.93
2022-09-06T20:36:34.858Z,18.94
2022-09-06T20:39:03.561Z,18.93
2022-09-06T20:41:31.559Z,18.92
2022-09-06T20:43:59.916Z,18.89
2022-09-06T20:46:29.421Z,18.86
2022-09-06T20:48:58.215Z,18.83
2022-09-06T20:51:26.240Z,18.81
2022-09-06T20:53:56.691Z,18.76
2022-09-06T20:56:29.278Z,18.70
2022-09-06T20:59:00.616Z,18.68
2022-09-06T21:01:30.213Z,18.63
2022-09-06T21:04:02.554Z,18.59
2022-09-06T21:06:31.590Z,18.57
2022-09-06T21:08:59.650Z,18.53
2022-09-06T21:11:28.141Z,18.51
2022-09-06T21:13:57.031Z,18.47
2022-09-06T21:16:28.042Z,18.43
2022-09-06T21:19:01.251Z,18.40
2022-09-06T21:21:30.618Z,18.39
2022-09-06T21:24:00.012Z,18.35
2022-09-06T21:26:27.804Z,18.34
2022-09-06T21:28:56.651Z,18.30
2022-09-06T21:31:29.805Z,18.30
2022-09-06T21:33:59.096Z,18.29
2022-09-06T21:36:30.157Z,18.30
2022-09-06T21:38:59.359Z,18.31
2022-09-06T21:41:28.650Z,18.30
2022-09-06T21:43:58.458Z,18.29
2022-09-06T21:46:32.636Z,18.25
2022-09-06T21:49:04.112Z,18.22
2022-09-06T21:51:33.644Z,18.18
2022-09-06T21:54:04.812Z,18.13
2022-09-06T21:56:36.939Z,18.08
2022-09-06T21:59:05.277Z,18.01
2022-09-06T22:01:34.123Z,17.95
2022-09-06T22:04:02.643Z,17.93
2022-09-06T22:06:31.585Z,17.90
2022-09-06T22:09:01.106Z,17.87
2022-09-06T22:11:30.817Z,17.83
2022-09-06T22:13:59.434Z,17.81
2022-09-06T22:16:28.734Z,17.81
2022-09-06T22:18:56.743Z,17.80
2022-09-06T22:21:24.950Z,17.80
2022-09-06T22:23:56.910Z,17.80
2022-09-06T22:26:26.206Z,17.77
2022-09-06T22:28:55.227Z,17.76
2022-09-06T22:31:23.580Z,17.76
2022-09-06T22:33:51.848Z,17.75
2022-09-06T22:36:19.903Z,17.73
2022-09-06T22:38:47.663Z,17.74
2022-09-06T22:41:15.420Z,17.77
2022-09-06T22:43:43.109Z,17.76
2022-09-06T22:46:11.308Z,17.76
2022-09-06T22:48:39.033Z,17.76
2022-09-06T22:51:06.818Z,17.76
2022-09-06T22:53:35.068Z,17.77
2022-09-06T22:56:03.022Z,17.79
2022-09-06T22:58:30.827Z,17.81
2022-09-06T23:01:06.459Z,17.84
2022-09-06T23:03:35.431Z,17.87
2022-09-06T23:06:03.689Z,17.86
2022-09-06T23:08:32.196Z,17.89
2022-09-06T23:11:03.568Z,17.90
2022-09-06T23:13:31.624Z,17.90
2022-09-06T23:16:06.884Z,17.88
2022-09-06T23:18:35.029Z,17.89
2022-09-06T23:21:06.790Z,17.88
2022-09-06T23:23:35.267Z,17.84
2022-09-06T23:26:11.064Z,17.82
2022-09-06T23:28:39.395Z,17.84
2022-09-06T23:31:09.092Z,17.85
2022-09-06T23:33:37.360Z,17.85
2022-09-06T23:36:06.570Z,17.82
2022-09-06T23:38:35.029Z,17.76
2022-09-06T23:41:03.294Z,17.69
2022-09-06T23:43:31.203Z,17.61
2022-09-06T23:45:58.992Z,17.54
2022-09-06T23:48:26.873Z,17.51
2022-09-06T23:50:54.719Z,17.43
2022-09-06T23:53:22.660Z,17.37
2022-09-06T23:55:50.571Z,17.34
2022-09-06T23:58:18.422Z,17.32
